sensor_id;sensor_type;location;lat;lon;timestamp;P1;durP1;ratioP1;P2;durP2;ratioP2
41661;SDS011;27351;45.992;12.666;2022-09-02T00:01:39;5.10;;;2.08;;
41661;SDS011;27351;45.992;12.666;2022-09-02T00:04:09;4.20;;;2.15;;
41661;SDS011;27351;45.992;12.666;2022-09-02T00:06:38;4.55;;;2.20;;
41661;SDS011;27351;45.992;12.666;2022-09-02T00:09:05;3.30;;;2.00;;
41661;SDS011;27351;45.992;12.666;2022-09-02T00:11:31;5.37;;;2.20;;
41661;SDS011;27351;45.992;12.666;2022-09-02T00:13:57;6.13;;;2.30;;
41661;SDS011;27351;45.992;12.666;2022-09-02T00:16:23;4.50;;;2.03;;
41661;SDS011;27351;45.992;12.666;2022-09-02T00:18:49;3.83;;;2.30;;
41661;SDS011;27351;45.992;12.666;2022-09-02T00:21:16;3.63;;;2.30;;
41661;SDS011;27351;45.992;12.666;2022-09-02T00:23:42;3.57;;;2.03;;
41661;SDS011;27351;45.992;12.666;2022-09-02T00:26:08;4.20;;;2.10;;
41661;SDS011;27351;45.992;12.666;2022-09-02T00:28:34;4.93;;;2.03;;
41661;SDS011;27351;45.992;12.666;2022-09-02T00:30:59;3.58;;;2.03;;
41661;SDS011;27351;45.992;12.666;2022-09-02T00:33:25;3.70;;;2.10;;
41661;SDS011;27351;45.992;12.666;2022-09-02T00:35:50;3.40;;;1.67;;
41661;SDS011;27351;45.992;12.666;2022-09-02T00:38:16;4.13;;;2.00;;
41661;SDS011;27351;45.992;12.666;2022-09-02T00:40:43;4.95;;;2.00;;
41661;SDS011;27351;45.992;12.666;2022-09-02T00:43:09;4.90;;;2.30;;
41661;SDS011;27351;45.992;12.666;2022-09-02T00:45:35;3.30;;;2.00;;
41661;SDS011;27351;45.992;12.666;2022-09-02T00:48:01;4.30;;;2.10;;
41661;SDS011;27351;45.992;12.666;2022-09-02T00:50:28;5.40;;;2.50;;
41661;SDS011;27351;45.992;12.666;2022-09-02T00:52:55;2.92;;;1.90;;
41661;SDS011;27351;45.992;12.666;2022-09-02T00:55:23;4.85;;;2.30;;
41661;SDS011;27351;45.992;12.666;2022-09-02T00:57:54;3.85;;;2.25;;
41661;SDS011;27351;45.992;12.666;2022-09-02T01:00:23;3.97;;;2.13;;
41661;SDS011;27351;45.992;12.666;2022-09-02T01:02:51;4.87;;;2.30;;
41661;SDS011;27351;45.992;12.666;2022-09-02T01:05:17;4.15;;;2.28;;
41661;SDS011;27351;45.992;12.666;2022-09-02T01:07:43;5.43;;;2.42;;
41661;SDS011;27351;45.992;12.666;2022-09-02T01:10:11;3.97;;;2.33;;
41661;SDS011;27351;45.992;12.666;2022-09-02T01:12:37;3.90;;;2.33;;
41661;SDS011;27351;45.992;12.666;2022-09-02T01:15:04;4.97;;;2.60;;
41661;SDS011;27351;45.992;12.666;2022-09-02T01:17:30;5.53;;;2.72;;
41661;SDS011;27351;45.992;12.666;2022-09-02T01:20:04;4.82;;;2.50;;
41661;SDS011;27351;45.992;12.666;2022-09-02T01:22:31;4.53;;;2.73;;
41661;SDS011;27351;45.992;12.666;2022-09-02T01:24:59;4.55;;;2.53;;
41661;SDS011;27351;45.992;12.666;2022-09-02T01:27:25;5.90;;;2.80;;
41661;SDS011;27351;45.992;12.666;2022-09-02T01:29:52;7.45;;;2.80;;
41661;SDS011;27351;45.992;12.666;2022-09-02T01:32:19;4.57;;;2.80;;
41661;SDS011;27351;45.992;12.666;2022-09-02T01:34:46;4.83;;;2.90;;
41661;SDS011;27351;45.992;12.666;2022-09-02T01:37:11;4.17;;;2.67;;
41661;SDS011;27351;45.992;12.666;2022-09-02T01:39:37;5.87;;;3.40;;
41661;SDS011;27351;45.992;12.666;2022-09-02T01:42:03;5.70;;;2.83;;
41661;SDS011;27351;45.992;12.666;2022-09-02T01:44:29;5.67;;;2.90;;
41661;SDS011;27351;45.992;12.666;2022-09-02T01:46:55;7.07;;;3.00;;
41661;SDS011;27351;45.992;12.666;2022-09-02T01:49:21;7.18;;;3.42;;
41661;SDS011;27351;45.992;12.666;2022-09-02T01:51:47;5.03;;;2.80;;
41661;SDS011;27351;45.992;12.666;2022-09-02T01:54:14;4.38;;;2.70;;
41661;SDS011;27351;45.992;12.666;2022-09-02T01:56:40;5.33;;;2.83;;
41661;SDS011;27351;45.992;12.666;2022-09-02T01:59:05;7.43;;;3.38;;
41661;SDS011;27351;45.992;12.666;2022-09-02T02:01:36;4.37;;;2.70;;
41661;SDS011;27351;45.992;12.666;2022-09-02T02:04:03;4.97;;;2.70;;
41661;SDS011;27351;45.992;12.666;2022-09-02T02:06:28;7.50;;;3.00;;
41661;SDS011;27351;45.992;12.666;2022-09-02T02:08:55;5.63;;;3.10;;
41661;SDS011;27351;45.992;12.666;2022-09-02T02:11:22;5.73;;;2.70;;
41661;SDS011;27351;45.992;12.666;2022-09-02T02:13:51;5.07;;;2.72;;
41661;SDS011;27351;45.992;12.666;2022-09-02T02:16:20;5.20;;;2.60;;
41661;SDS011;27351;45.992;12.666;2022-09-02T02:18:45;6.90;;;3.17;;
41661;SDS011;27351;45.992;12.666;2022-09-02T02:21:12;6.30;;;3.08;;
41661;SDS011;27351;45.992;12.666;2022-09-02T02:23:37;8.18;;;3.03;;
41661;SDS011;27351;45.992;12.666;2022-09-02T02:26:05;6.82;;;3.15;;
41661;SDS011;27351;45.992;12.666;2022-09-02T02:28:31;5.57;;;3.45;;
41661;SDS011;27351;45.992;12.666;2022-09-02T02:30:57;6.10;;;3.17;;
41661;SDS011;27351;45.992;12.666;2022-09-02T02:33:25;8.02;;;3.30;;
41661;SDS011;27351;45.992;12.666;2022-09-02T02:35:55;5.40;;;2.88;;
41661;SDS011;27351;45.992;12.666;2022-09-02T02:38:22;6.25;;;3.28;;
41661;SDS011;27351;45.992;12.666;2022-09-02T02:40:49;6.68;;;3.00;;
41661;SDS011;27351;45.992;12.666;2022-09-02T02:43:14;5.60;;;3.42;;
41661;SDS011;27351;45.992;12.666;2022-09-02T02:45:41;6.40;;;3.42;;
41661;SDS011;27351;45.992;12.666;2022-09-02T02:48:06;7.27;;;3.17;;
41661;SDS011;27351;45.992;12.666;2022-09-02T02:50:33;6.57;;;3.35;;
41661;SDS011;27351;45.992;12.666;2022-09-02T02:52:59;6.18;;;3.08;;
41661;SDS011;27351;45.992;12.666;2022-09-02T02:55:28;4.78;;;2.65;;
41661;SDS011;27351;45.992;12.666;2022-09-02T02:57:55;3.90;;;2.67;;
41661;SDS011;27351;45.992;12.666;2022-09-02T03:00:22;4.23;;;2.60;;
41661;SDS011;27351;45.992;12.666;2022-09-02T03:02:49;5.70;;;2.70;;
41661;SDS011;27351;45.992;12.666;2022-09-02T03:05:19;5.28;;;2.38;;
41661;SDS011;27351;45.992;12.666;2022-09-02T03:07:45;4.27;;;2.50;;
41661;SDS011;27351;45.992;12.666;2022-09-02T03:10:13;4.03;;;2.53;;
41661;SDS011;27351;45.992;12.666;2022-09-02T03:12:40;4.27;;;2.50;;
41661;SDS011;27351;45.992;12.666;2022-09-02T03:15:07;5.27;;;2.63;;
41661;SDS011;27351;45.992;12.666;2022-09-02T03:17:32;5.40;;;2.70;;
41661;SDS011;27351;45.992;12.666;2022-09-02T03:19:59;6.05;;;2.88;;
41661;SDS011;27351;45.992;12.666;2022-09-02T03:22:29;4.70;;;2.70;;
41661;SDS011;27351;45.992;12.666;2022-09-02T03:24:55;6.20;;;2.80;;
41661;SDS011;27351;45.992;12.666;2022-09-02T03:27:21;5.28;;;2.60;;
41661;SDS011;27351;45.992;12.666;2022-09-02T03:29:47;6.60;;;3.20;;
41661;SDS011;27351;45.992;12.666;2022-09-02T03:32:13;5.65;;;2.95;;
41661;SDS011;27351;45.992;12.666;2022-09-02T03:34:39;4.60;;;2.87;;
41661;SDS011;27351;45.992;12.666;2022-09-02T03:37:06;4.85;;;3.05;;
41661;SDS011;27351;45.992;12.666;2022-09-02T03:39:34;5.25;;;3.28;;
41661;SDS011;27351;45.992;12.666;2022-09-02T03:41:59;5.10;;;3.20;;
41661;SDS011;27351;45.992;12.666;2022-09-02T03:44:26;6.00;;;3.17;;
41661;SDS011;27351;45.992;12.666;2022-09-02T03:46:52;5.87;;;3.17;;
41661;SDS011;27351;45.992;12.666;2022-09-02T03:49:18;7.22;;;3.42;;
41661;SDS011;27351;45.992;12.666;2022-09-02T03:51:44;7.20;;;3.55;;
41661;SDS011;27351;45.992;12.666;2022-09-02T03:54:10;9.33;;;3.57;;
41661;SDS011;27351;45.992;12.666;2022-09-02T03:56:38;5.95;;;3.00;;
41661;SDS011;27351;45.992;12.666;2022-09-02T03:59:04;6.75;;;2.90;;
41661;SDS011;27351;45.992;12.666;2022-09-02T04:01:30;5.80;;;3.28;;
41661;SDS011;27351;45.992;12.666;2022-09-02T04:03:56;4.30;;;3.03;;
41661;SDS011;27351;45.992;12.666;2022-09-02T04:06:22;7.80;;;3.23;;
41661;SDS011;27351;45.992;12.666;2022-09-02T04:08:49;8.68;;;3.30;;
41661;SDS011;27351;45.992;12.666;2022-09-02T04:11:17;5.75;;;3.20;;
41661;SDS011;27351;45.992;12.666;2022-09-02T04:13:45;6.13;;;3.77;;
41661;SDS011;27351;45.992;12.666;2022-09-02T04:16:17;7.57;;;3.90;;
41661;SDS011;27351;45.992;12.666;2022-09-02T04:18:43;5.45;;;3.42;;
41661;SDS011;27351;45.992;12.666;2022-09-02T04:21:10;6.35;;;3.40;;
41661;SDS011;27351;45.992;12.666;2022-09-02T04:23:37;6.57;;;3.58;;
41661;SDS011;27351;45.992;12.666;2022-09-02T04:26:07;6.97;;;3.33;;
41661;SDS011;27351;45.992;12.666;2022-09-02T04:28:35;4.97;;;3.22;;
41661;SDS011;27351;45.992;12.666;2022-09-02T04:31:04;6.50;;;3.42;;
41661;SDS011;27351;45.992;12.666;2022-09-02T04:33:31;5.68;;;3.30;;
41661;SDS011;27351;45.992;12.666;2022-09-02T04:35:57;6.53;;;3.42;;
41661;SDS011;27351;45.992;12.666;2022-09-02T04:38:23;7.77;;;3.70;;
41661;SDS011;27351;45.992;12.666;2022-09-02T04:40:49;5.60;;;3.50;;
41661;SDS011;27351;45.992;12.666;2022-09-02T04:43:17;7.05;;;3.55;;
41661;SDS011;27351;45.992;12.666;2022-09-02T04:45:44;6.68;;;3.90;;
41661;SDS011;27351;45.992;12.666;2022-09-02T04:48:13;7.00;;;4.00;;
41661;SDS011;27351;45.992;12.666;2022-09-02T04:50:40;6.13;;;3.63;;
41661;SDS011;27351;45.992;12.666;2022-09-02T04:53:07;5.15;;;3.45;;
41661;SDS011;27351;45.992;12.666;2022-09-02T04:55:33;7.03;;;3.90;;
41661;SDS011;27351;45.992;12.666;2022-09-02T04:58:00;6.55;;;3.50;;
41661;SDS011;27351;45.992;12.666;2022-09-02T05:00:26;8.50;;;3.43;;
41661;SDS011;27351;45.992;12.666;2022-09-02T05:02:53;7.07;;;3.28;;
41661;SDS011;27351;45.992;12.666;2022-09-02T05:05:21;10.00;;;3.60;;
41661;SDS011;27351;45.992;12.666;2022-09-02T05:07:49;9.77;;;3.47;;
41661;SDS011;27351;45.992;12.666;2022-09-02T05:10:15;5.90;;;3.38;;
41661;SDS011;27351;45.992;12.666;2022-09-02T05:12:42;6.47;;;3.22;;
41661;SDS011;27351;45.992;12.666;2022-09-02T05:15:11;5.77;;;3.33;;
41661;SDS011;27351;45.992;12.666;2022-09-02T05:17:37;6.97;;;3.40;;
41661;SDS011;27351;45.992;12.666;2022-09-02T05:20:05;9.27;;;3.70;;
41661;SDS011;27351;45.992;12.666;2022-09-02T05:22:32;7.88;;;3.33;;
41661;SDS011;27351;45.992;12.666;2022-09-02T05:25:00;6.10;;;3.57;;
41661;SDS011;27351;45.992;12.666;2022-09-02T05:27:27;5.38;;;3.00;;
41661;SDS011;27351;45.992;12.666;2022-09-02T05:29:53;6.40;;;3.38;;
41661;SDS011;27351;45.992;12.666;2022-09-02T05:32:20;5.27;;;2.80;;
41661;SDS011;27351;45.992;12.666;2022-09-02T05:34:49;6.60;;;3.35;;
41661;SDS011;27351;45.992;12.666;2022-09-02T05:37:15;6.55;;;3.17;;
41661;SDS011;27351;45.992;12.666;2022-09-02T05:39:40;5.32;;;3.03;;
41661;SDS011;27351;45.992;12.666;2022-09-02T05:42:06;6.23;;;3.00;;
41661;SDS011;27351;45.992;12.666;2022-09-02T05:44:34;6.60;;;3.10;;
41661;SDS011;27351;45.992;12.666;2022-09-02T05:47:01;4.75;;;2.47;;
41661;SDS011;27351;45.992;12.666;2022-09-02T05:49:27;4.72;;;2.83;;
41661;SDS011;27351;45.992;12.666;2022-09-02T05:51:58;5.90;;;2.78;;
41661;SDS011;27351;45.992;12.666;2022-09-02T05:54:32;6.03;;;2.70;;
41661;SDS011;27351;45.992;12.666;2022-09-02T05:57:03;4.67;;;2.70;;
41661;SDS011;27351;45.992;12.666;2022-09-02T05:59:30;5.75;;;2.25;;
41661;SDS011;27351;45.992;12.666;2022-09-02T06:02:02;3.95;;;2.22;;
41661;SDS011;27351;45.992;12.666;2022-09-02T06:04:27;3.97;;;2.33;;
41661;SDS011;27351;45.992;12.666;2022-09-02T06:06:54;3.88;;;2.50;;
41661;SDS011;27351;45.992;12.666;2022-09-02T06:09:21;5.25;;;2.20;;
41661;SDS011;27351;45.992;12.666;2022-09-02T06:11:48;4.32;;;2.08;;
41661;SDS011;27351;45.992;12.666;2022-09-02T06:14:19;3.47;;;2.00;;
41661;SDS011;27351;45.992;12.666;2022-09-02T06:16:48;5.20;;;2.00;;
41661;SDS011;27351;45.992;12.666;2022-09-02T06:19:22;3.28;;;1.98;;
41661;SDS011;27351;45.992;12.666;2022-09-02T06:21:52;5.50;;;2.43;;
41661;SDS011;27351;45.992;12.666;2022-09-02T06:24:18;2.70;;;1.90;;
41661;SDS011;27351;45.992;12.666;2022-09-02T06:26:46;4.30;;;2.00;;
41661;SDS011;27351;45.992;12.666;2022-09-02T06:29:12;4.70;;;1.85;;
41661;SDS011;27351;45.992;12.666;2022-09-02T06:31:42;4.15;;;1.85;;
41661;SDS011;27351;45.992;12.666;2022-09-02T06:34:09;5.05;;;2.25;;
41661;SDS011;27351;45.992;12.666;2022-09-02T06:36:37;6.80;;;2.10;;
41661;SDS011;27351;45.992;12.666;2022-09-02T06:39:03;4.15;;;1.83;;
41661;SDS011;27351;45.992;12.666;2022-09-02T06:41:31;6.78;;;2.10;;
41661;SDS011;27351;45.992;12.666;2022-09-02T06:44:02;3.50;;;1.85;;
41661;SDS011;27351;45.992;12.666;2022-09-02T06:46:31;3.00;;;1.80;;
41661;SDS011;27351;45.992;12.666;2022-09-02T06:49:00;3.03;;;1.90;;
41661;SDS011;27351;45.992;12.666;2022-09-02T06:51:31;3.42;;;1.85;;
41661;SDS011;27351;45.992;12.666;2022-09-02T06:53:59;5.60;;;2.13;;
41661;SDS011;27351;45.992;12.666;2022-09-02T06:56:28;4.45;;;1.88;;
41661;SDS011;27351;45.992;12.666;2022-09-02T06:58:55;4.63;;;2.20;;
41661;SDS011;27351;45.992;12.666;2022-09-02T07:01:32;4.88;;;2.10;;
41661;SDS011;27351;45.992;12.666;2022-09-02T07:03:58;3.80;;;2.07;;
41661;SDS011;27351;45.992;12.666;2022-09-02T07:06:44;4.72;;;2.30;;
41661;SDS011;27351;45.992;12.666;2022-09-02T07:09:12;3.78;;;2.15;;
41661;SDS011;27351;45.992;12.666;2022-09-02T07:11:38;4.70;;;2.22;;
41661;SDS011;27351;45.992;12.666;2022-09-02T07:14:05;4.97;;;2.33;;
41661;SDS011;27351;45.992;12.666;2022-09-02T07:16:33;3.53;;;2.00;;
41661;SDS011;27351;45.992;12.666;2022-09-02T07:18:59;5.25;;;2.30;;
41661;SDS011;27351;45.992;12.666;2022-09-02T07:21:26;4.33;;;1.80;;
41661;SDS011;27351;45.992;12.666;2022-09-02T07:23:59;4.32;;;2.17;;
41661;SDS011;27351;45.992;12.666;2022-09-02T07:26:25;2.22;;;1.50;;
41661;SDS011;27351;45.992;12.666;2022-09-02T07:28:51;4.03;;;1.80;;
41661;SDS011;27351;45.992;12.666;2022-09-02T07:31:19;2.90;;;1.50;;
41661;SDS011;27351;45.992;12.666;2022-09-02T07:33:45;2.72;;;1.42;;
41661;SDS011;27351;45.992;12.666;2022-09-02T07:36:13;5.38;;;1.60;;
41661;SDS011;27351;45.992;12.666;2022-09-02T07:38:40;2.73;;;1.30;;
41661;SDS011;27351;45.992;12.666;2022-09-02T07:41:07;3.53;;;1.40;;
41661;SDS011;27351;45.992;12.666;2022-09-02T07:43:34;2.28;;;1.30;;
41661;SDS011;27351;45.992;12.666;2022-09-02T07:46:01;2.30;;;1.40;;
41661;SDS011;27351;45.992;12.666;2022-09-02T07:48:28;4.55;;;1.33;;
41661;SDS011;27351;45.992;12.666;2022-09-02T07:50:54;3.20;;;1.38;;
41661;SDS011;27351;45.992;12.666;2022-09-02T07:53:21;4.10;;;1.40;;
41661;SDS011;27351;45.992;12.666;2022-09-02T07:55:48;5.90;;;1.55;;
41661;SDS011;27351;45.992;12.666;2022-09-02T07:58:15;3.47;;;1.33;;
41661;SDS011;27351;45.992;12.666;2022-09-02T08:00:42;4.13;;;1.30;;
41661;SDS011;27351;45.992;12.666;2022-09-02T08:03:10;3.17;;;1.42;;
41661;SDS011;27351;45.992;12.666;2022-09-02T08:05:41;2.70;;;1.20;;
41661;SDS011;27351;45.992;12.666;2022-09-02T08:08:09;3.53;;;1.33;;
41661;SDS011;27351;45.992;12.666;2022-09-02T08:10:35;5.35;;;1.52;;
41661;SDS011;27351;45.992;12.666;2022-09-02T08:13:01;1.80;;;1.13;;
41661;SDS011;27351;45.992;12.666;2022-09-02T08:15:27;3.45;;;1.30;;
41661;SDS011;27351;45.992;12.666;2022-09-02T08:17:53;4.55;;;1.23;;
41661;SDS011;27351;45.992;12.666;2022-09-02T08:20:19;2.13;;;1.38;;
41661;SDS011;27351;45.992;12.666;2022-09-02T08:22:45;1.92;;;1.08;;
41661;SDS011;27351;45.992;12.666;2022-09-02T08:25:10;1.70;;;1.20;;
41661;SDS011;27351;45.992;12.666;2022-09-02T08:27:36;1.93;;;1.20;;
41661;SDS011;27351;45.992;12.666;2022-09-02T08:30:05;1.67;;;1.25;;
41661;SDS011;27351;45.992;12.666;2022-09-02T08:32:34;3.30;;;1.60;;
41661;SDS011;27351;45.992;12.666;2022-09-02T08:35:00;2.45;;;1.13;;
41661;SDS011;27351;45.992;12.666;2022-09-02T08:37:29;9.40;;;1.48;;
41661;SDS011;27351;45.992;12.666;2022-09-02T08:39:55;5.03;;;1.67;;
41661;SDS011;27351;45.992;12.666;2022-09-02T08:42:22;4.50;;;1.73;;
41661;SDS011;27351;45.992;12.666;2022-09-02T08:44:50;3.92;;;1.77;;
41661;SDS011;27351;45.992;12.666;2022-09-02T08:47:21;5.43;;;1.80;;
41661;SDS011;27351;45.992;12.666;2022-09-02T08:49:51;5.10;;;1.63;;
41661;SDS011;27351;45.992;12.666;2022-09-02T08:52:28;5.50;;;1.40;;
41661;SDS011;27351;45.992;12.666;2022-09-02T08:54:55;5.63;;;1.63;;
41661;SDS011;27351;45.992;12.666;2022-09-02T08:57:24;6.37;;;1.60;;
41661;SDS011;27351;45.992;12.666;2022-09-02T08:59:55;5.53;;;1.50;;
41661;SDS011;27351;45.992;12.666;2022-09-02T09:05:25;6.25;;;1.83;;
41661;SDS011;27351;45.992;12.666;2022-09-02T09:10:48;3.92;;;1.30;;
41661;SDS011;27351;45.992;12.666;2022-09-02T09:18:34;2.05;;;1.13;;
41661;SDS011;27351;45.992;12.666;2022-09-02T09:21:02;9.05;;;1.77;;
41661;SDS011;27351;45.992;12.666;2022-09-02T09:23:30;3.73;;;1.30;;
41661;SDS011;27351;45.992;12.666;2022-09-02T09:26:03;6.38;;;1.73;;
41661;SDS011;27351;45.992;12.666;2022-09-02T09:28:30;6.90;;;1.40;;
41661;SDS011;27351;45.992;12.666;2022-09-02T09:30:55;2.90;;;1.33;;
41661;SDS011;27351;45.992;12.666;2022-09-02T09:33:25;3.70;;;1.45;;
41661;SDS011;27351;45.992;12.666;2022-09-02T09:35:51;3.47;;;1.30;;
41661;SDS011;27351;45.992;12.666;2022-09-02T09:38:29;5.47;;;1.35;;
41661;SDS011;27351;45.992;12.666;2022-09-02T09:41:11;3.15;;;1.35;;
41661;SDS011;27351;45.992;12.666;2022-09-02T09:43:38;4.50;;;1.30;;
41661;SDS011;27351;45.992;12.666;2022-09-02T09:46:46;3.13;;;1.43;;
41661;SDS011;27351;45.992;12.666;2022-09-02T09:48:52;3.20;;;1.25;;
41661;SDS011;27351;45.992;12.666;2022-09-02T09:51:18;4.38;;;1.30;;
41661;SDS011;27351;45.992;12.666;2022-09-02T09:53:44;1.73;;;1.10;;
41661;SDS011;27351;45.992;12.666;2022-09-02T10:01:15;3.47;;;1.20;;
41661;SDS011;27351;45.992;12.666;2022-09-02T10:03:47;4.87;;;1.30;;
41661;SDS011;27351;45.992;12.666;2022-09-02T10:06:18;5.82;;;1.20;;
41661;SDS011;27351;45.992;12.666;2022-09-02T10:08:52;1.63;;;1.10;;
41661;SDS011;27351;45.992;12.666;2022-09-02T10:11:19;2.35;;;1.17;;
41661;SDS011;27351;45.992;12.666;2022-09-02T10:13:45;3.13;;;1.30;;
41661;SDS011;27351;45.992;12.666;2022-09-02T10:18:56;3.13;;;1.30;;
41661;SDS011;27351;45.992;12.666;2022-09-02T10:34:30;3.22;;;1.40;;
41661;SDS011;27351;45.992;12.666;2022-09-02T10:39:40;3.38;;;1.45;;
41661;SDS011;27351;45.992;12.666;2022-09-02T10:42:32;3.30;;;1.33;;
41661;SDS011;27351;45.992;12.666;2022-09-02T10:45:06;3.90;;;1.20;;
41661;SDS011;27351;45.992;12.666;2022-09-02T10:47:37;3.15;;;1.38;;
41661;SDS011;27351;45.992;12.666;2022-09-02T10:52:45;5.37;;;1.10;;
41661;SDS011;27351;45.992;12.666;2022-09-02T10:55:18;3.30;;;1.33;;
41661;SDS011;27351;45.992;12.666;2022-09-02T11:02:41;2.97;;;1.20;;
41661;SDS011;27351;45.992;12.666;2022-09-02T11:05:13;4.18;;;1.30;;
41661;SDS011;27351;45.992;12.666;2022-09-02T11:10:10;3.15;;;1.30;;
41661;SDS011;27351;45.992;12.666;2022-09-02T11:12:44;3.33;;;1.30;;
41661;SDS011;27351;45.992;12.666;2022-09-02T11:15:34;3.05;;;1.30;;
41661;SDS011;27351;45.992;12.666;2022-09-02T11:18:26;2.28;;;1.20;;
41661;SDS011;27351;45.992;12.666;2022-09-02T11:20:56;2.83;;;1.20;;
41661;SDS011;27351;45.992;12.666;2022-09-02T11:26:00;2.65;;;1.10;;
41661;SDS011;27351;45.992;12.666;2022-09-02T11:28:45;3.60;;;1.52;;
41661;SDS011;27351;45.992;12.666;2022-09-02T11:31:20;3.22;;;1.13;;
41661;SDS011;27351;45.992;12.666;2022-09-02T11:36:15;2.40;;;1.20;;
41661;SDS011;27351;45.992;12.666;2022-09-02T11:38:43;2.10;;;1.20;;
41661;SDS011;27351;45.992;12.666;2022-09-02T11:43:54;2.75;;;1.25;;
41661;SDS011;27351;45.992;12.666;2022-09-02T11:46:30;1.73;;;1.20;;
41661;SDS011;27351;45.992;12.666;2022-09-02T11:49:04;2.30;;;1.20;;
41661;SDS011;27351;45.992;12.666;2022-09-02T11:54:00;1.13;;;0.93;;
41661;SDS011;27351;45.992;12.666;2022-09-02T11:56:28;2.38;;;1.10;;
41661;SDS011;27351;45.992;12.666;2022-09-02T11:58:58;3.30;;;1.20;;
41661;SDS011;27351;45.992;12.666;2022-09-02T12:04:04;2.58;;;1.25;;
41661;SDS011;27351;45.992;12.666;2022-09-02T12:06:31;2.67;;;1.17;;
41661;SDS011;27351;45.992;12.666;2022-09-02T12:08:59;2.20;;;1.10;;
41661;SDS011;27351;45.992;12.666;2022-09-02T12:11:35;2.38;;;1.10;;
41661;SDS011;27351;45.992;12.666;2022-09-02T12:14:03;1.90;;;1.05;;
41661;SDS011;27351;45.992;12.666;2022-09-02T12:21:22;2.13;;;1.17;;
41661;SDS011;27351;45.992;12.666;2022-09-02T12:26:15;2.75;;;1.20;;
41661;SDS011;27351;45.992;12.666;2022-09-02T12:28:41;3.65;;;1.23;;
41661;SDS011;27351;45.992;12.666;2022-09-02T12:31:14;2.35;;;1.17;;
41661;SDS011;27351;45.992;12.666;2022-09-02T12:33:43;3.10;;;1.10;;
41661;SDS011;27351;45.992;12.666;2022-09-02T12:36:55;3.13;;;1.10;;
41661;SDS011;27351;45.992;12.666;2022-09-02T12:39:43;2.13;;;1.10;;
41661;SDS011;27351;45.992;12.666;2022-09-02T12:41:42;1.95;;;1.00;;
41661;SDS011;27351;45.992;12.666;2022-09-02T12:44:21;2.72;;;1.05;;
41661;SDS011;27351;45.992;12.666;2022-09-02T12:47:07;2.13;;;1.05;;
41661;SDS011;27351;45.992;12.666;2022-09-02T12:49:37;2.10;;;1.10;;
41661;SDS011;27351;45.992;12.666;2022-09-02T12:52:11;2.30;;;0.95;;
41661;SDS011;27351;45.992;12.666;2022-09-02T12:57:03;1.77;;;1.10;;
41661;SDS011;27351;45.992;12.666;2022-09-02T12:59:30;2.00;;;1.10;;
41661;SDS011;27351;45.992;12.666;2022-09-02T13:08:02;34.00;;;2.97;;
41661;SDS011;27351;45.992;12.666;2022-09-02T13:16:14;3.33;;;1.48;;
41661;SDS011;27351;45.992;12.666;2022-09-02T13:24:20;7.60;;;1.50;;
41661;SDS011;27351;45.992;12.666;2022-09-02T13:32:14;6.20;;;1.50;;
41661;SDS011;27351;45.992;12.666;2022-09-02T13:34:47;9.57;;;1.55;;
41661;SDS011;27351;45.992;12.666;2022-09-02T13:37:30;4.93;;;1.40;;
41661;SDS011;27351;45.992;12.666;2022-09-02T13:39:56;2.67;;;1.00;;
41661;SDS011;27351;45.992;12.666;2022-09-02T13:42:25;7.63;;;1.67;;
41661;SDS011;27351;45.992;12.666;2022-09-02T13:45:14;5.15;;;1.50;;
41661;SDS011;27351;45.992;12.666;2022-09-02T13:47:40;7.75;;;1.80;;
41661;SDS011;27351;45.992;12.666;2022-09-02T13:50:06;10.00;;;1.60;;
41661;SDS011;27351;45.992;12.666;2022-09-02T13:52:32;3.22;;;1.30;;
41661;SDS011;27351;45.992;12.666;2022-09-02T13:55:01;2.78;;;1.20;;
41661;SDS011;27351;45.992;12.666;2022-09-02T13:57:28;3.10;;;1.30;;
41661;SDS011;27351;45.992;12.666;2022-09-02T13:59:55;6.45;;;1.92;;
41661;SDS011;27351;45.992;12.666;2022-09-02T14:04:48;2.90;;;1.40;;
41661;SDS011;27351;45.992;12.666;2022-09-02T14:07:14;4.13;;;1.40;;
41661;SDS011;27351;45.992;12.666;2022-09-02T14:09:40;4.22;;;1.30;;
41661;SDS011;27351;45.992;12.666;2022-09-02T14:12:06;2.08;;;1.23;;
41661;SDS011;27351;45.992;12.666;2022-09-02T14:14:31;2.85;;;1.27;;
41661;SDS011;27351;45.992;12.666;2022-09-02T14:17:20;3.08;;;1.45;;
41661;SDS011;27351;45.992;12.666;2022-09-02T14:19:47;1.80;;;1.10;;
41661;SDS011;27351;45.992;12.666;2022-09-02T14:22:22;3.70;;;1.70;;
41661;SDS011;27351;45.992;12.666;2022-09-02T14:24:48;2.70;;;1.25;;
41661;SDS011;27351;45.992;12.666;2022-09-02T14:27:17;2.05;;;1.20;;
41661;SDS011;27351;45.992;12.666;2022-09-02T14:29:44;5.00;;;1.43;;
41661;SDS011;27351;45.992;12.666;2022-09-02T14:34:38;2.78;;;1.23;;
41661;SDS011;27351;45.992;12.666;2022-09-02T14:45:09;2.53;;;1.33;;
41661;SDS011;27351;45.992;12.666;2022-09-02T14:47:36;2.05;;;1.10;;
41661;SDS011;27351;45.992;12.666;2022-09-02T14:50:03;2.38;;;1.20;;
41661;SDS011;27351;45.992;12.666;2022-09-02T14:52:29;3.15;;;1.10;;
41661;SDS011;27351;45.992;12.666;2022-09-02T14:54:57;3.45;;;1.58;;
41661;SDS011;27351;45.992;12.666;2022-09-02T14:57:25;2.42;;;1.20;;
41661;SDS011;27351;45.992;12.666;2022-09-02T15:00:00;2.80;;;1.25;;
41661;SDS011;27351;45.992;12.666;2022-09-02T15:02:30;4.17;;;1.37;;
41661;SDS011;27351;45.992;12.666;2022-09-02T15:04:57;1.63;;;1.00;;
41661;SDS011;27351;45.992;12.666;2022-09-02T15:07:23;2.60;;;1.30;;
41661;SDS011;27351;45.992;12.666;2022-09-02T15:09:50;1.80;;;1.20;;
41661;SDS011;27351;45.992;12.666;2022-09-02T15:12:17;2.80;;;1.20;;
41661;SDS011;27351;45.992;12.666;2022-09-02T15:14:44;3.33;;;1.30;;
41661;SDS011;27351;45.992;12.666;2022-09-02T15:17:11;4.80;;;1.30;;
41661;SDS011;27351;45.992;12.666;2022-09-02T15:19:38;1.95;;;1.25;;
41661;SDS011;27351;45.992;12.666;2022-09-02T15:22:03;2.35;;;1.30;;
41661;SDS011;27351;45.992;12.666;2022-09-02T15:24:29;3.33;;;1.50;;
41661;SDS011;27351;45.992;12.666;2022-09-02T15:26:54;3.38;;;1.30;;
41661;SDS011;27351;45.992;12.666;2022-09-02T15:29:20;5.57;;;1.30;;
41661;SDS011;27351;45.992;12.666;2022-09-02T15:31:49;2.50;;;1.23;;
41661;SDS011;27351;45.992;12.666;2022-09-02T15:34:15;3.28;;;1.23;;
41661;SDS011;27351;45.992;12.666;2022-09-02T15:36:40;3.45;;;1.50;;
41661;SDS011;27351;45.992;12.666;2022-09-02T15:39:09;3.50;;;1.40;;
41661;SDS011;27351;45.992;12.666;2022-09-02T15:41:35;1.73;;;1.20;;
41661;SDS011;27351;45.992;12.666;2022-09-02T15:44:03;2.20;;;1.20;;
41661;SDS011;27351;45.992;12.666;2022-09-02T15:46:31;5.05;;;1.23;;
41661;SDS011;27351;45.992;12.666;2022-09-02T15:49:00;2.55;;;1.10;;
41661;SDS011;27351;45.992;12.666;2022-09-02T15:51:26;5.70;;;1.50;;
41661;SDS011;27351;45.992;12.666;2022-09-02T15:53:56;2.63;;;1.17;;
41661;SDS011;27351;45.992;12.666;2022-09-02T15:56:22;1.50;;;1.08;;
41661;SDS011;27351;45.992;12.666;2022-09-02T16:01:23;3.25;;;1.05;;
41661;SDS011;27351;45.992;12.666;2022-09-02T16:03:48;4.03;;;1.45;;
41661;SDS011;27351;45.992;12.666;2022-09-02T16:06:14;3.90;;;1.13;;
41661;SDS011;27351;45.992;12.666;2022-09-02T16:08:40;2.97;;;1.17;;
41661;SDS011;27351;45.992;12.666;2022-09-02T16:11:06;1.92;;;1.20;;
41661;SDS011;27351;45.992;12.666;2022-09-02T16:13:32;3.60;;;1.40;;
41661;SDS011;27351;45.992;12.666;2022-09-02T16:16:00;1.80;;;1.10;;
41661;SDS011;27351;45.992;12.666;2022-09-02T16:18:25;3.55;;;1.20;;
41661;SDS011;27351;45.992;12.666;2022-09-02T16:20:51;3.00;;;1.20;;
41661;SDS011;27351;45.992;12.666;2022-09-02T16:23:16;1.67;;;1.20;;
41661;SDS011;27351;45.992;12.666;2022-09-02T16:25:42;2.70;;;1.25;;